sensor_id;sensor_type;location;lat;lon;timestamp;P1;durP1;ratioP1;P2;durP2;ratioP2
26335;SDS011;14047;50.936;4.654;2023-12-14T00:01:15;62.13;;;21.63;;
26335;SDS011;14047;50.936;4.654;2023-12-14T00:03:41;61.83;;;22.02;;
26335;SDS011;14047;50.936;4.654;2023-12-14T00:06:09;64.55;;;21.95;;
26335;SDS011;14047;50.936;4.654;2023-12-14T00:08:39;57.33;;;22.20;;
26335;SDS011;14047;50.936;4.654;2023-12-14T00:11:06;54.80;;;21.63;;
26335;SDS011;14047;50.936;4.654;2023-12-14T00:13:33;59.85;;;23.38;;
26335;SDS011;14047;50.936;4.654;2023-12-14T00:15:59;53.63;;;22.50;;
26335;SDS011;14047;50.936;4.654;2023-12-14T00:18:25;60.13;;;22.13;;
26335;SDS011;14047;50.936;4.654;2023-12-14T00:20:51;63.15;;;23.88;;
26335;SDS011;14047;50.936;4.654;2023-12-14T00:23:21;59.78;;;22.23;;
26335;SDS011;14047;50.936;4.654;2023-12-14T00:25:50;58.95;;;21.55;;
26335;SDS011;14047;50.936;4.654;2023-12-14T00:28:16;60.75;;;21.80;;
26335;SDS011;14047;50.936;4.654;2023-12-14T00:30:42;58.63;;;22.70;;
26335;SDS011;14047;50.936;4.654;2023-12-14T00:33:08;55.83;;;21.80;;
26335;SDS011;14047;50.936;4.654;2023-12-14T00:35:34;57.80;;;20.75;;
26335;SDS011;14047;50.936;4.654;2023-12-14T00:38:00;58.88;;;21.80;;
26335;SDS011;14047;50.936;4.654;2023-12-14T00:40:26;57.33;;;21.35;;
26335;SDS011;14047;50.936;4.654;2023-12-14T00:42:52;64.03;;;21.15;;
26335;SDS011;14047;50.936;4.654;2023-12-14T00:45:18;59.85;;;22.35;;
26335;SDS011;14047;50.936;4.654;2023-12-14T00:47:44;60.65;;;21.23;;
26335;SDS011;14047;50.936;4.654;2023-12-14T00:50:10;64.55;;;23.13;;
26335;SDS011;14047;50.936;4.654;2023-12-14T00:52:36;56.80;;;22.20;;
26335;SDS011;14047;50.936;4.654;2023-12-14T00:55:02;61.70;;;23.52;;
26335;SDS011;14047;50.936;4.654;2023-12-14T00:57:28;60.28;;;23.23;;
26335;SDS011;14047;50.936;4.654;2023-12-14T00:59:54;55.65;;;22.85;;
26335;SDS011;14047;50.936;4.654;2023-12-14T01:02:20;62.58;;;22.83;;
26335;SDS011;14047;50.936;4.654;2023-12-14T01:04:47;63.35;;;22.88;;
26335;SDS011;14047;50.936;4.654;2023-12-14T01:07:13;66.03;;;22.35;;
26335;SDS011;14047;50.936;4.654;2023-12-14T01:09:38;61.05;;;22.50;;
26335;SDS011;14047;50.936;4.654;2023-12-14T01:12:04;69.85;;;23.85;;
26335;SDS011;14047;50.936;4.654;2023-12-14T01:14:30;66.55;;;22.10;;
26335;SDS011;14047;50.936;4.654;2023-12-14T01:16:56;59.42;;;20.27;;
26335;SDS011;14047;50.936;4.654;2023-12-14T01:19:22;69.43;;;22.38;;
26335;SDS011;14047;50.936;4.654;2023-12-14T01:21:50;60.55;;;21.80;;
26335;SDS011;14047;50.936;4.654;2023-12-14T01:24:17;60.47;;;21.83;;
26335;SDS011;14047;50.936;4.654;2023-12-14T01:26:42;57.10;;;22.23;;
26335;SDS011;14047;50.936;4.654;2023-12-14T01:29:08;52.85;;;20.98;;
26335;SDS011;14047;50.936;4.654;2023-12-14T01:31:34;62.65;;;21.23;;
26335;SDS011;14047;50.936;4.654;2023-12-14T01:34:00;55.70;;;19.77;;
26335;SDS011;14047;50.936;4.654;2023-12-14T01:36:26;54.35;;;19.23;;
26335;SDS011;14047;50.936;4.654;2023-12-14T01:38:52;54.92;;;20.20;;
26335;SDS011;14047;50.936;4.654;2023-12-14T01:41:18;51.53;;;19.70;;
26335;SDS011;14047;50.936;4.654;2023-12-14T01:43:44;47.70;;;19.38;;
26335;SDS011;14047;50.936;4.654;2023-12-14T01:46:10;48.78;;;19.38;;
26335;SDS011;14047;50.936;4.654;2023-12-14T01:48:38;52.13;;;19.60;;
26335;SDS011;14047;50.936;4.654;2023-12-14T01:51:04;48.47;;;18.20;;
26335;SDS011;14047;50.936;4.654;2023-12-14T01:53:30;50.42;;;17.95;;
26335;SDS011;14047;50.936;4.654;2023-12-14T01:55:56;48.58;;;17.08;;
26335;SDS011;14047;50.936;4.654;2023-12-14T01:58:22;47.28;;;16.70;;
26335;SDS011;14047;50.936;4.654;2023-12-14T02:03:44;37.90;;;14.98;;
26335;SDS011;14047;50.936;4.654;2023-12-14T02:06:11;38.35;;;14.88;;
26335;SDS011;14047;50.936;4.654;2023-12-14T02:08:37;41.08;;;14.38;;
26335;SDS011;14047;50.936;4.654;2023-12-14T02:11:03;39.83;;;14.85;;
26335;SDS011;14047;50.936;4.654;2023-12-14T02:13:29;43.58;;;15.85;;
26335;SDS011;14047;50.936;4.654;2023-12-14T02:15:55;36.50;;;13.48;;
26335;SDS011;14047;50.936;4.654;2023-12-14T02:18:21;40.97;;;13.90;;
26335;SDS011;14047;50.936;4.654;2023-12-14T02:20:46;37.33;;;13.52;;
26335;SDS011;14047;50.936;4.654;2023-12-14T02:23:12;36.42;;;13.43;;
26335;SDS011;14047;50.936;4.654;2023-12-14T02:25:38;38.53;;;14.35;;
26335;SDS011;14047;50.936;4.654;2023-12-14T02:28:04;41.25;;;14.60;;
26335;SDS011;14047;50.936;4.654;2023-12-14T02:30:30;45.67;;;16.02;;
26335;SDS011;14047;50.936;4.654;2023-12-14T02:32:56;44.80;;;16.20;;
26335;SDS011;14047;50.936;4.654;2023-12-14T02:35:22;44.17;;;15.13;;
26335;SDS011;14047;50.936;4.654;2023-12-14T02:37:48;38.50;;;14.15;;
26335;SDS011;14047;50.936;4.654;2023-12-14T02:40:14;29.88;;;11.88;;
26335;SDS011;14047;50.936;4.654;2023-12-14T02:42:40;35.13;;;12.73;;
26335;SDS011;14047;50.936;4.654;2023-12-14T02:45:06;38.75;;;12.52;;
26335;SDS011;14047;50.936;4.654;2023-12-14T02:47:33;28.25;;;11.85;;
26335;SDS011;14047;50.936;4.654;2023-12-14T02:49:59;31.77;;;12.15;;
26335;SDS011;14047;50.936;4.654;2023-12-14T02:52:25;36.80;;;12.63;;
26335;SDS011;14047;50.936;4.654;2023-12-14T02:54:51;29.92;;;11.80;;
26335;SDS011;14047;50.936;4.654;2023-12-14T02:57:17;34.80;;;13.07;;
26335;SDS011;14047;50.936;4.654;2023-12-14T02:59:43;31.67;;;12.05;;
26335;SDS011;14047;50.936;4.654;2023-12-14T03:02:10;27.65;;;12.07;;
26335;SDS011;14047;50.936;4.654;2023-12-14T03:04:39;30.60;;;11.13;;
26335;SDS011;14047;50.936;4.654;2023-12-14T03:07:05;33.58;;;12.65;;
26335;SDS011;14047;50.936;4.654;2023-12-14T03:09:31;33.72;;;12.48;;
26335;SDS011;14047;50.936;4.654;2023-12-14T03:11:57;27.85;;;12.35;;
26335;SDS011;14047;50.936;4.654;2023-12-14T03:14:24;31.58;;;13.23;;
26335;SDS011;14047;50.936;4.654;2023-12-14T03:16:50;32.58;;;12.73;;
26335;SDS011;14047;50.936;4.654;2023-12-14T03:19:16;40.00;;;14.30;;
26335;SDS011;14047;50.936;4.654;2023-12-14T03:21:42;32.58;;;13.90;;
26335;SDS011;14047;50.936;4.654;2023-12-14T03:24:08;28.98;;;11.30;;
26335;SDS011;14047;50.936;4.654;2023-12-14T03:26:37;28.08;;;12.35;;
26335;SDS011;14047;50.936;4.654;2023-12-14T03:29:03;24.00;;;9.57;;
26335;SDS011;14047;50.936;4.654;2023-12-14T03:31:29;24.73;;;10.65;;
26335;SDS011;14047;50.936;4.654;2023-12-14T03:33:55;27.20;;;12.32;;
26335;SDS011;14047;50.936;4.654;2023-12-14T03:36:21;23.55;;;10.65;;
26335;SDS011;14047;50.936;4.654;2023-12-14T03:38:51;23.52;;;11.35;;
26335;SDS011;14047;50.936;4.654;2023-12-14T03:41:17;24.85;;;10.65;;
26335;SDS011;14047;50.936;4.654;2023-12-14T03:43:43;21.70;;;10.10;;
26335;SDS011;14047;50.936;4.654;2023-12-14T03:46:09;19.50;;;9.07;;
26335;SDS011;14047;50.936;4.654;2023-12-14T03:48:35;21.48;;;9.63;;
26335;SDS011;14047;50.936;4.654;2023-12-14T03:51:02;23.83;;;10.35;;
26335;SDS011;14047;50.936;4.654;2023-12-14T03:53:29;19.45;;;8.43;;
26335;SDS011;14047;50.936;4.654;2023-12-14T03:55:55;21.88;;;6.88;;
26335;SDS011;14047;50.936;4.654;2023-12-14T03:58:21;23.15;;;9.95;;
26335;SDS011;14047;50.936;4.654;2023-12-14T04:00:47;18.75;;;9.73;;
26335;SDS011;14047;50.936;4.654;2023-12-14T04:03:13;17.50;;;8.23;;
26335;SDS011;14047;50.936;4.654;2023-12-14T04:05:38;18.33;;;7.78;;
26335;SDS011;14047;50.936;4.654;2023-12-14T04:08:04;18.65;;;8.07;;
26335;SDS011;14047;50.936;4.654;2023-12-14T04:10:30;15.77;;;7.15;;
26335;SDS011;14047;50.936;4.654;2023-12-14T04:12:56;19.15;;;7.00;;
26335;SDS011;14047;50.936;4.654;2023-12-14T04:15:22;15.52;;;7.60;;
26335;SDS011;14047;50.936;4.654;2023-12-14T04:17:48;17.27;;;7.53;;
26335;SDS011;14047;50.936;4.654;2023-12-14T04:20:14;18.80;;;8.50;;
26335;SDS011;14047;50.936;4.654;2023-12-14T04:22:44;16.40;;;7.70;;
26335;SDS011;14047;50.936;4.654;2023-12-14T04:25:10;15.20;;;7.85;;
26335;SDS011;14047;50.936;4.654;2023-12-14T04:27:36;19.92;;;9.68;;
26335;SDS011;14047;50.936;4.654;2023-12-14T04:30:02;23.67;;;10.77;;
26335;SDS011;14047;50.936;4.654;2023-12-14T04:32:30;19.67;;;10.15;;
26335;SDS011;14047;50.936;4.654;2023-12-14T04:34:55;21.17;;;10.80;;
26335;SDS011;14047;50.936;4.654;2023-12-14T04:37:22;19.80;;;10.18;;
26335;SDS011;14047;50.936;4.654;2023-12-14T04:39:47;21.35;;;10.60;;
26335;SDS011;14047;50.936;4.654;2023-12-14T04:42:13;22.75;;;11.55;;
26335;SDS011;14047;50.936;4.654;2023-12-14T04:44:39;19.90;;;10.52;;
26335;SDS011;14047;50.936;4.654;2023-12-14T04:47:05;19.42;;;10.57;;
26335;SDS011;14047;50.936;4.654;2023-12-14T04:49:32;17.45;;;9.32;;
26335;SDS011;14047;50.936;4.654;2023-12-14T04:51:58;21.75;;;10.98;;
26335;SDS011;14047;50.936;4.654;2023-12-14T04:54:23;16.83;;;9.82;;
26335;SDS011;14047;50.936;4.654;2023-12-14T04:56:50;17.85;;;9.82;;
26335;SDS011;14047;50.936;4.654;2023-12-14T04:59:16;23.17;;;11.18;;
26335;SDS011;14047;50.936;4.654;2023-12-14T05:01:42;18.85;;;10.35;;
26335;SDS011;14047;50.936;4.654;2023-12-14T05:04:08;19.75;;;10.50;;
26335;SDS011;14047;50.936;4.654;2023-12-14T05:06:34;18.50;;;9.38;;
26335;SDS011;14047;50.936;4.654;2023-12-14T05:09:00;18.35;;;10.90;;
26335;SDS011;14047;50.936;4.654;2023-12-14T05:11:29;18.85;;;9.27;;
26335;SDS011;14047;50.936;4.654;2023-12-14T05:13:55;19.48;;;10.98;;
26335;SDS011;14047;50.936;4.654;2023-12-14T05:16:21;19.38;;;10.90;;
26335;SDS011;14047;50.936;4.654;2023-12-14T05:18:52;21.48;;;12.18;;
26335;SDS011;14047;50.936;4.654;2023-12-14T05:21:18;24.88;;;12.13;;
26335;SDS011;14047;50.936;4.654;2023-12-14T05:23:45;24.13;;;12.10;;
26335;SDS011;14047;50.936;4.654;2023-12-14T05:26:11;22.23;;;12.00;;
26335;SDS011;14047;50.936;4.654;2023-12-14T05:28:36;23.13;;;12.02;;
26335;SDS011;14047;50.936;4.654;2023-12-14T05:31:02;23.60;;;11.70;;
26335;SDS011;14047;50.936;4.654;2023-12-14T05:33:29;21.45;;;11.70;;
26335;SDS011;14047;50.936;4.654;2023-12-14T05:35:56;27.92;;;12.48;;
26335;SDS011;14047;50.936;4.654;2023-12-14T05:38:22;22.65;;;12.90;;
26335;SDS011;14047;50.936;4.654;2023-12-14T05:40:49;21.90;;;11.40;;
26335;SDS011;14047;50.936;4.654;2023-12-14T05:43:15;23.75;;;13.07;;
26335;SDS011;14047;50.936;4.654;2023-12-14T05:45:41;23.95;;;12.57;;
26335;SDS011;14047;50.936;4.654;2023-12-14T05:48:07;26.70;;;13.68;;
26335;SDS011;14047;50.936;4.654;2023-12-14T05:50:32;22.08;;;12.27;;
26335;SDS011;14047;50.936;4.654;2023-12-14T05:52:58;23.27;;;12.73;;
26335;SDS011;14047;50.936;4.654;2023-12-14T05:55:24;23.15;;;11.98;;
26335;SDS011;14047;50.936;4.654;2023-12-14T05:57:50;24.00;;;12.27;;
26335;SDS011;14047;50.936;4.654;2023-12-14T06:00:17;21.52;;;10.80;;
26335;SDS011;14047;50.936;4.654;2023-12-14T06:02:43;22.50;;;11.18;;
26335;SDS011;14047;50.936;4.654;2023-12-14T06:05:09;20.65;;;11.15;;
26335;SDS011;14047;50.936;4.654;2023-12-14T06:07:36;23.00;;;11.63;;
26335;SDS011;14047;50.936;4.654;2023-12-14T06:10:02;20.50;;;10.95;;
26335;SDS011;14047;50.936;4.654;2023-12-14T06:12:29;22.90;;;11.50;;
26335;SDS011;14047;50.936;4.654;2023-12-14T06:14:55;20.08;;;10.38;;
26335;SDS011;14047;50.936;4.654;2023-12-14T06:17:21;25.17;;;11.95;;
26335;SDS011;14047;50.936;4.654;2023-12-14T06:19:46;21.98;;;11.93;;
26335;SDS011;14047;50.936;4.654;2023-12-14T06:22:12;25.95;;;11.77;;
26335;SDS011;14047;50.936;4.654;2023-12-14T06:24:38;22.65;;;11.55;;
26335;SDS011;14047;50.936;4.654;2023-12-14T06:27:04;23.52;;;12.05;;
26335;SDS011;14047;50.936;4.654;2023-12-14T06:29:30;21.65;;;11.75;;
26335;SDS011;14047;50.936;4.654;2023-12-14T06:31:56;23.77;;;12.13;;
26335;SDS011;14047;50.936;4.654;2023-12-14T06:34:22;20.48;;;10.65;;
26335;SDS011;14047;50.936;4.654;2023-12-14T06:36:48;22.73;;;11.98;;
26335;SDS011;14047;50.936;4.654;2023-12-14T06:39:14;20.05;;;11.90;;
26335;SDS011;14047;50.936;4.654;2023-12-14T06:41:41;23.77;;;12.23;;
26335;SDS011;14047;50.936;4.654;2023-12-14T06:44:07;20.25;;;10.57;;
26335;SDS011;14047;50.936;4.654;2023-12-14T06:46:34;19.85;;;10.82;;
26335;SDS011;14047;50.936;4.654;2023-12-14T06:49:01;21.52;;;11.65;;
26335;SDS011;14047;50.936;4.654;2023-12-14T06:51:27;24.13;;;12.55;;
26335;SDS011;14047;50.936;4.654;2023-12-14T06:53:53;21.00;;;11.20;;
26335;SDS011;14047;50.936;4.654;2023-12-14T06:56:19;21.83;;;10.60;;
26335;SDS011;14047;50.936;4.654;2023-12-14T06:58:45;20.67;;;11.73;;
26335;SDS011;14047;50.936;4.654;2023-12-14T07:01:14;22.33;;;11.55;;
26335;SDS011;14047;50.936;4.654;2023-12-14T07:03:41;23.23;;;12.00;;
26335;SDS011;14047;50.936;4.654;2023-12-14T07:06:14;23.83;;;12.95;;
26335;SDS011;14047;50.936;4.654;2023-12-14T07:08:41;24.88;;;12.65;;
26335;SDS011;14047;50.936;4.654;2023-12-14T07:11:07;27.48;;;13.48;;
26335;SDS011;14047;50.936;4.654;2023-12-14T07:13:34;29.40;;;13.02;;
26335;SDS011;14047;50.936;4.654;2023-12-14T07:16:05;28.98;;;12.75;;
26335;SDS011;14047;50.936;4.654;2023-12-14T07:18:39;27.55;;;11.80;;
26335;SDS011;14047;50.936;4.654;2023-12-14T07:21:07;32.30;;;13.23;;
26335;SDS011;14047;50.936;4.654;2023-12-14T07:23:34;25.60;;;12.20;;
26335;SDS011;14047;50.936;4.654;2023-12-14T07:26:00;23.85;;;12.82;;
26335;SDS011;14047;50.936;4.654;2023-12-14T07:28:27;26.20;;;12.68;;
26335;SDS011;14047;50.936;4.654;2023-12-14T07:30:53;26.88;;;13.48;;
26335;SDS011;14047;50.936;4.654;2023-12-14T07:33:20;29.95;;;12.77;;
26335;SDS011;14047;50.936;4.654;2023-12-14T07:35:46;22.27;;;11.63;;
26335;SDS011;14047;50.936;4.654;2023-12-14T07:38:12;24.60;;;12.05;;
26335;SDS011;14047;50.936;4.654;2023-12-14T07:40:38;25.48;;;12.75;;
26335;SDS011;14047;50.936;4.654;2023-12-14T07:43:05;26.10;;;12.27;;
26335;SDS011;14047;50.936;4.654;2023-12-14T07:45:32;22.92;;;11.40;;
26335;SDS011;14047;50.936;4.654;2023-12-14T07:47:58;25.75;;;12.02;;
26335;SDS011;14047;50.936;4.654;2023-12-14T07:50:24;26.13;;;11.32;;
26335;SDS011;14047;50.936;4.654;2023-12-14T07:52:51;27.20;;;13.20;;
26335;SDS011;14047;50.936;4.654;2023-12-14T07:55:18;27.08;;;13.02;;
26335;SDS011;14047;50.936;4.654;2023-12-14T07:57:44;25.17;;;12.30;;
26335;SDS011;14047;50.936;4.654;2023-12-14T08:00:11;24.88;;;12.45;;
26335;SDS011;14047;50.936;4.654;2023-12-14T08:02:37;29.80;;;12.52;;
26335;SDS011;14047;50.936;4.654;2023-12-14T08:05:03;25.90;;;12.00;;
26335;SDS011;14047;50.936;4.654;2023-12-14T08:07:31;21.90;;;11.45;;
26335;SDS011;14047;50.936;4.654;2023-12-14T08:09:58;26.30;;;12.20;;
26335;SDS011;14047;50.936;4.654;2023-12-14T08:12:24;25.63;;;12.38;;
26335;SDS011;14047;50.936;4.654;2023-12-14T08:14:51;24.98;;;11.50;;
26335;SDS011;14047;50.936;4.654;2023-12-14T08:17:17;25.65;;;12.15;;
26335;SDS011;14047;50.936;4.654;2023-12-14T08:19:43;29.70;;;12.93;;
26335;SDS011;14047;50.936;4.654;2023-12-14T08:22:09;24.90;;;11.98;;
26335;SDS011;14047;50.936;4.654;2023-12-14T08:24:40;29.75;;;13.77;;
26335;SDS011;14047;50.936;4.654;2023-12-14T08:27:07;26.48;;;11.90;;
26335;SDS011;14047;50.936;4.654;2023-12-14T08:29:33;24.77;;;11.73;;
26335;SDS011;14047;50.936;4.654;2023-12-14T08:31:59;23.35;;;12.65;;
26335;SDS011;14047;50.936;4.654;2023-12-14T08:34:25;26.77;;;11.77;;
26335;SDS011;14047;50.936;4.654;2023-12-14T08:36:52;24.75;;;11.57;;
26335;SDS011;14047;50.936;4.654;2023-12-14T08:39:18;27.63;;;11.05;;
26335;SDS011;14047;50.936;4.654;2023-12-14T08:41:47;26.10;;;11.57;;
26335;SDS011;14047;50.936;4.654;2023-12-14T08:44:14;22.27;;;11.55;;
26335;SDS011;14047;50.936;4.654;2023-12-14T08:46:44;24.38;;;11.20;;
26335;SDS011;14047;50.936;4.654;2023-12-14T08:49:11;20.33;;;11.18;;
26335;SDS011;14047;50.936;4.654;2023-12-14T08:51:38;22.05;;;10.82;;
26335;SDS011;14047;50.936;4.654;2023-12-14T08:54:04;25.38;;;11.10;;
26335;SDS011;14047;50.936;4.654;2023-12-14T08:56:31;21.52;;;11.10;;
26335;SDS011;14047;50.936;4.654;2023-12-14T08:58:58;21.38;;;10.27;;
26335;SDS011;14047;50.936;4.654;2023-12-14T09:01:24;19.63;;;10.10;;
26335;SDS011;14047;50.936;4.654;2023-12-14T09:03:50;22.77;;;10.25;;
26335;SDS011;14047;50.936;4.654;2023-12-14T09:06:17;23.15;;;11.00;;
26335;SDS011;14047;50.936;4.654;2023-12-14T09:08:43;20.17;;;9.05;;
26335;SDS011;14047;50.936;4.654;2023-12-14T09:11:10;26.08;;;10.55;;
26335;SDS011;14047;50.936;4.654;2023-12-14T09:13:36;21.98;;;10.02;;
26335;SDS011;14047;50.936;4.654;2023-12-14T09:16:03;22.98;;;10.68;;
26335;SDS011;14047;50.936;4.654;2023-12-14T09:18:29;20.80;;;9.32;;
26335;SDS011;14047;50.936;4.654;2023-12-14T09:20:55;16.75;;;8.80;;
26335;SDS011;14047;50.936;4.654;2023-12-14T09:23:21;18.98;;;9.30;;
26335;SDS011;14047;50.936;4.654;2023-12-14T09:25:47;19.30;;;8.98;;
26335;SDS011;14047;50.936;4.654;2023-12-14T09:28:15;22.55;;;8.52;;
26335;SDS011;14047;50.936;4.654;2023-12-14T09:30:41;15.15;;;8.02;;
26335;SDS011;14047;50.936;4.654;2023-12-14T09:33:06;16.27;;;6.95;;
26335;SDS011;14047;50.936;4.654;2023-12-14T09:35:34;21.13;;;7.57;;
26335;SDS011;14047;50.936;4.654;2023-12-14T09:38:04;13.60;;;7.78;;
26335;SDS011;14047;50.936;4.654;2023-12-14T09:40:31;15.98;;;7.82;;
26335;SDS011;14047;50.936;4.654;2023-12-14T09:42:57;15.55;;;7.38;;
26335;SDS011;14047;50.936;4.654;2023-12-14T09:45:24;17.17;;;8.13;;
26335;SDS011;14047;50.936;4.654;2023-12-14T09:47:53;16.10;;;8.10;;
26335;SDS011;14047;50.936;4.654;2023-12-14T09:50:20;13.38;;;6.95;;
26335;SDS011;14047;50.936;4.654;2023-12-14T09:52:48;21.77;;;7.18;;
26335;SDS011;14047;50.936;4.654;2023-12-14T09:55:14;11.05;;;6.22;;
26335;SDS011;14047;50.936;4.654;2023-12-14T09:57:41;14.13;;;5.63;;
26335;SDS011;14047;50.936;4.654;2023-12-14T10:00:07;10.23;;;4.68;;
26335;SDS011;14047;50.936;4.654;2023-12-14T10:02:36;15.63;;;5.18;;
26335;SDS011;14047;50.936;4.654;2023-12-14T10:05:02;12.65;;;5.07;;
26335;SDS011;14047;50.936;4.654;2023-12-14T10:07:30;17.02;;;5.28;;
26335;SDS011;14047;50.936;4.654;2023-12-14T10:10:09;7.78;;;3.63;;
26335;SDS011;14047;50.936;4.654;2023-12-14T10:12:52;10.40;;;4.22;;
26335;SDS011;14047;50.936;4.654;2023-12-14T10:15:18;10.85;;;4.03;;
26335;SDS011;14047;50.936;4.654;2023-12-14T10:17:44;6.88;;;4.18;;
26335;SDS011;14047;50.936;4.654;2023-12-14T10:20:19;10.57;;;5.15;;
26335;SDS011;14047;50.936;4.654;2023-12-14T10:22:51;7.13;;;4.35;;
26335;SDS011;14047;50.936;4.654;2023-12-14T10:25:18;9.95;;;4.82;;
26335;SDS011;14047;50.936;4.654;2023-12-14T10:27:47;7.93;;;4.63;;
26335;SDS011;14047;50.936;4.654;2023-12-14T10:30:14;10.07;;;4.65;;
26335;SDS011;14047;50.936;4.654;2023-12-14T10:32:40;8.60;;;4.65;;
26335;SDS011;14047;50.936;4.654;2023-12-14T10:35:07;12.55;;;4.85;;
26335;SDS011;14047;50.936;4.654;2023-12-14T10:37:34;13.57;;;5.82;;
26335;SDS011;14047;50.936;4.654;2023-12-14T10:40:03;15.05;;;5.25;;
26335;SDS011;14047;50.936;4.654;2023-12-14T10:42:36;8.85;;;5.30;;
26335;SDS011;14047;50.936;4.654;2023-12-14T10:45:02;13.23;;;5.57;;
26335;SDS011;14047;50.936;4.654;2023-12-14T10:47:30;11.82;;;5.88;;
26335;SDS011;14047;50.936;4.654;2023-12-14T10:49:57;10.52;;;5.75;;
26335;SDS011;14047;50.936;4.654;2023-12-14T10:52:26;13.13;;;6.07;;
26335;SDS011;14047;50.936;4.654;2023-12-14T10:54:56;10.93;;;6.32;;
26335;SDS011;14047;50.936;4.654;2023-12-14T10:57:27;9.90;;;5.85;;
26335;SDS011;14047;50.936;4.654;2023-12-14T11:00:00;12.02;;;5.85;;
26335;SDS011;14047;50.936;4.654;2023-12-14T11:02:37;12.93;;;5.90;;
26335;SDS011;14047;50.936;4.654;2023-12-14T11:05:11;10.68;;;6.05;;
26335;SDS011;14047;50.936;4.654;2023-12-14T11:07:48;14.52;;;6.72;;
26335;SDS011;14047;50.936;4.654;2023-12-14T11:10:22;14.25;;;6.53;;
26335;SDS011;14047;50.936;4.654;2023-12-14T11:12:55;13.30;;;6.75;;
26335;SDS011;14047;50.936;4.654;2023-12-14T11:15:25;17.35;;;7.22;;
26335;SDS011;14047;50.936;4.654;2023-12-14T11:20:55;12.98;;;6.93;;
26335;SDS011;14047;50.936;4.654;2023-12-14T11:25:57;15.00;;;7.00;;
26335;SDS011;14047;50.936;4.654;2023-12-14T11:28:25;14.57;;;7.03;;
26335;SDS011;14047;50.936;4.654;2023-12-14T11:30:52;11.70;;;6.53;;
26335;SDS011;14047;50.936;4.654;2023-12-14T11:33:18;15.85;;;6.93;;
26335;SDS011;14047;50.936;4.654;2023-12-14T11:35:44;14.23;;;6.85;;
26335;SDS011;14047;50.936;4.654;2023-12-14T11:38:10;13.55;;;6.88;;
26335;SDS011;14047;50.936;4.654;2023-12-14T11:40:47;14.93;;;5.78;;
26335;SDS011;14047;50.936;4.654;2023-12-14T11:43:14;10.20;;;5.35;;
26335;SDS011;14047;50.936;4.654;2023-12-14T11:45:41;15.30;;;5.90;;
26335;SDS011;14047;50.936;4.654;2023-12-14T11:48:07;15.02;;;5.45;;
26335;SDS011;14047;50.936;4.654;2023-12-14T11:50:37;12.05;;;5.22;;
26335;SDS011;14047;50.936;4.654;2023-12-14T11:53:04;15.70;;;5.32;;
26335;SDS011;14047;50.936;4.654;2023-12-14T11:55:31;16.90;;;5.53;;
26335;SDS011;14047;50.936;4.654;2023-12-14T11:57:57;13.57;;;5.22;;
26335;SDS011;14047;50.936;4.654;2023-12-14T12:00:28;12.05;;;4.95;;
26335;SDS011;14047;50.936;4.654;2023-12-14T12:03:07;12.32;;;5.53;;
26335;SDS011;14047;50.936;4.654;2023-12-14T12:05:37;13.65;;;5.55;;
26335;SDS011;14047;50.936;4.654;2023-12-14T12:08:11;9.30;;;4.40;;
26335;SDS011;14047;50.936;4.654;2023-12-14T12:10:38;11.50;;;4.70;;
26335;SDS011;14047;50.936;4.654;2023-12-14T12:13:11;12.02;;;6.35;;
26335;SDS011;14047;50.936;4.654;2023-12-14T12:15:40;13.30;;;4.70;;
26335;SDS011;14047;50.936;4.654;2023-12-14T12:18:07;10.73;;;4.95;;
26335;SDS011;14047;50.936;4.654;2023-12-14T12:20:34;10.25;;;4.57;;
26335;SDS011;14047;50.936;4.654;2023-12-14T12:23:01;14.85;;;4.70;;
26335;SDS011;14047;50.936;4.654;2023-12-14T12:25:28;10.43;;;4.95;;
26335;SDS011;14047;50.936;4.654;2023-12-14T12:27:54;7.00;;;4.30;;
26335;SDS011;14047;50.936;4.654;2023-12-14T12:30:21;12.32;;;4.30;;
26335;SDS011;14047;50.936;4.654;2023-12-14T12:32:47;7.30;;;3.90;;
26335;SDS011;14047;50.936;4.654;2023-12-14T12:35:14;9.27;;;4.63;;
26335;SDS011;14047;50.936;4.654;2023-12-14T12:37:40;8.10;;;4.50;;
26335;SDS011;14047;50.936;4.654;2023-12-14T12:40:06;9.43;;;4.15;;
26335;SDS011;14047;50.936;4.654;2023-12-14T12:42:33;9.02;;;4.78;;
26335;SDS011;14047;50.936;4.654;2023-12-14T12:44:59;9.93;;;4.55;;
26335;SDS011;14047;50.936;4.654;2023-12-14T12:47:26;9.02;;;4.38;;
26335;SDS011;14047;50.936;4.654;2023-12-14T12:49:52;9.93;;;4.68;;
26335;SDS011;14047;50.936;4.654;2023-12-14T12:52:18;8.32;;;4.07;;
26335;SDS011;14047;50.936;4.654;2023-12-14T12:54:44;9.52;;;4.68;;
26335;SDS011;14047;50.936;4.654;2023-12-14T12:57:10;11.60;;;4.65;;
26335;SDS011;14047;50.936;4.654;2023-12-14T12:59:36;13.02;;;4.72;;
26335;SDS011;14047;50.936;4.654;2023-12-14T13:02:01;10.32;;;4.82;;
26335;SDS011;14047;50.936;4.654;2023-12-14T13:04:28;8.82;;;4.35;;
26335;SDS011;14047;50.936;4.654;2023-12-14T13:06:55;13.00;;;4.93;;
26335;SDS011;14047;50.936;4.654;2023-12-14T13:09:21;13.18;;;5.20;;
26335;SDS011;14047;50.936;4.654;2023-12-14T13:11:48;8.50;;;4.20;;
26335;SDS011;14047;50.936;4.654;2023-12-14T13:14:15;14.18;;;5.35;;
26335;SDS011;14047;50.936;4.654;2023-12-14T13:16:41;10.32;;;5.30;;
26335;SDS011;14047;50.936;4.654;2023-12-14T13:19:08;15.68;;;5.68;;
26335;SDS011;14047;50.936;4.654;2023-12-14T13:21:34;9.65;;;4.28;;
26335;SDS011;14047;50.936;4.654;2023-12-14T13:24:04;13.25;;;5.35;;
26335;SDS011;14047;50.936;4.654;2023-12-14T13:26:30;14.05;;;4.85;;
26335;SDS011;14047;50.936;4.654;2023-12-14T13:28:56;15.20;;;5.57;;
26335;SDS011;14047;50.936;4.654;2023-12-14T13:31:22;19.73;;;6.20;;
26335;SDS011;14047;50.936;4.654;2023-12-14T13:33:48;11.30;;;4.88;;
26335;SDS011;14047;50.936;4.654;2023-12-14T13:36:15;20.10;;;5.15;;
26335;SDS011;14047;50.936;4.654;2023-12-14T13:38:42;11.30;;;5.30;;
26335;SDS011;14047;50.936;4.654;2023-12-14T13:41:08;12.45;;;5.13;;
26335;SDS011;14047;50.936;4.654;2023-12-14T13:43:34;20.48;;;5.30;;
26335;SDS011;14047;50.936;4.654;2023-12-14T13:46:00;13.57;;;5.15;;
26335;SDS011;14047;50.936;4.654;2023-12-14T13:48:27;13.35;;;5.18;;
26335;SDS011;14047;50.936;4.654;2023-12-14T13:50:54;10.27;;;4.72;;
26335;SDS011;14047;50.936;4.654;2023-12-14T13:53:21;11.10;;;4.40;;
26335;SDS011;14047;50.936;4.654;2023-12-14T13:55:47;12.65;;;4.88;;
26335;SDS011;14047;50.936;4.654;2023-12-14T13:58:16;14.25;;;4.47;;
26335;SDS011;14047;50.936;4.654;2023-12-14T14:00:45;12.05;;;4.85;;
26335;SDS011;14047;50.936;4.654;2023-12-14T14:03:12;11.38;;;5.57;;
26335;SDS011;14047;50.936;4.654;2023-12-14T14:05:38;11.93;;;5.22;;
26335;SDS011;14047;50.936;4.654;2023-12-14T14:08:04;12.13;;;5.15;;
26335;SDS011;14047;50.936;4.654;2023-12-14T14:10:30;14.40;;;5.45;;
26335;SDS011;14047;50.936;4.654;2023-12-14T14:12:56;11.38;;;5.55;;
26335;SDS011;14047;50.936;4.654;2023-12-14T14:15:23;12.52;;;6.00;;
26335;SDS011;14047;50.936;4.654;2023-12-14T14:17:49;9.80;;;5.25;;
26335;SDS011;14047;50.936;4.654;2023-12-14T14:20:17;8.45;;;4.72;;
26335;SDS011;14047;50.936;4.654;2023-12-14T14:22:43;9.88;;;5.13;;
26335;SDS011;14047;50.936;4.654;2023-12-14T14:25:09;18.75;;;5.60;;
26335;SDS011;14047;50.936;4.654;2023-12-14T14:27:35;12.70;;;5.85;;
26335;SDS011;14047;50.936;4.654;2023-12-14T14:30:02;14.65;;;5.93;;
26335;SDS011;14047;50.936;4.654;2023-12-14T14:32:28;13.30;;;5.60;;
26335;SDS011;14047;50.936;4.654;2023-12-14T14:34:57;14.68;;;5.90;;